SHASTA DAM (USBR) (SHA)

Elevation: 1067' · SACRAMENTO R basin · Operator: US Bureau of Reclamation

Provisional data, subject to change.
Query executed Monday at 8:36:28   clock

Select a sensor type for a plot of data.
Note: Reservoir Flows are daily averages.

Earlier

Date RES ELE    STORAGE    RES CHG    TOC STO    ABV TOC    OUTFLOW    INFLOW    EVAP    FNF    RIV REL    PPT INC    RAIN    SPILL    DIS PWR   
 FEET   AF   AF   AF   AF   CFS   CFS   CFS   CFS   CFS   INCHES   INCHES   CFS   CFS  
08/28/2016 1015.22 3173008 -15092 4552100 -1379092 9478 2077 208 2316 0 0.00 65.43 0 9478
08/29/2016 1014.61 3158673 -14335 4552100 -1393427 9631 2611 207 2442 0 0.00 65.43 0 9631
08/30/2016 1014.10 3146711 -11962 4552100 -1405389 9517 3692 206 2611 0 0.00 65.43 0 9517
08/31/2016 1013.48 3132231 -14480 4552100 -1419869 9420 2326 206 2404 0 0.00 65.43 0 9420
09/01/2016 1012.94 3119637 -12594 4552100 -1432463 9132 2975 192 2366 0 0.00 65.43 0 9132
09/02/2016 1012.40 3107102 -12535 4552100 -1444998 8896 2781 205 2261 0 0.00 65.43 0 8896
09/03/2016 1011.87 3094815 -12287 4552100 -1457285 8659 2566 102 2502 0 0.00 65.43 0 8659
09/04/2016 1011.21 3079573 -15242 4552100 -1472527 8831 1337 190 2202 0 0.00 65.43 0 8831
09/05/2016 1010.56 3064615 -14958 4552100 -1487485 9656 2216 101 2178 0 0.00 65.43 0 9656
09/06/2016 1010.04 3052669 -11946 4552100 -1499431 8495 2728 256 2501 0 0.00 65.43 0 8495
09/07/2016 1009.55 3041465 -11204 4552100 -- 9035 3574 188 2309 0 0.00 65.43 0 9035
09/08/2016 1009.00 3028895 -12570 4552100 -1523205 8306 2117 148 2486 0 0.00 65.43 0 8306
09/09/2016 1008.55 3018665 -10230 4552100 -1533435 7538 2514 134 2182 0 0.00 65.43 0 7538
09/10/2016 1008.14 3009345 -9320 4552100 -1542755 8335 3836 200 2741 0 0.00 65.43 0 8335
09/11/2016 1007.62 2997569 -11776 4552100 -1554531 7957 2253 233 2109 0 0.00 65.43 0 7957
09/12/2016 1007.15 2986940 -10629 4552100 -1565160 7609 2456 206 2870 0 0.00 65.43 0 7609
09/13/2016 1006.70 2976798 -10142 4552100 -1575302 7880 2953 186 2522 0 0.00 65.43 0 7880
09/14/2016 1006.34 2968699 -8099 4552100 -1583401 7988 4084 179 2619 0 0.00 65.43 0 7988
09/15/2016 1005.89 2958588 -10111 4552100 -1593512 7656 2644 86 2428 0 0.00 65.43 0 7656
09/16/2016 1005.20 2943147 -15441 4552100 -1608953 8058 391 118 451 0 0.00 65.43 0 8058
09/17/2016 1004.58 2929322 -13825 4552100 -1622778 8369 1576 177 2459 0 0.00 65.43 0 8369
09/18/2016 1004.07 2917968 -11354 4552100 -1634132 7809 2353 268 2377 0 0.00 65.43 0 7809
09/19/2016 1003.60 2907554 -- 4552100 -1644546 8087 3000 163 2612 0 0.00 65.43 0 8087
09/20/2016 1003.10 2896484 -11070 4552100 -1655616 7185 1786 182 2554 0 0.00 65.43 0 7185
09/21/2016 1002.54 2884138 -12346 4552100 -1667962 7565 1516 175 2477 0 0.00 65.43 0 7565
09/22/2016 1002.04 2873125 -11013 4552100 -1678975 7110 1694 136 2338 0 0.00 65.43 0 7110
09/23/2016 1001.56 2862604 -10521 4552100 -1689496 7251 2115 168 2650 0 0.00 65.43 0 7251
09/24/2016 1001.09 2852307 -10297 4552100 -1699793 7074 1992 109 2509 0 0.00 65.43 0 7074
09/25/2016 1000.65 2842708 -9599 4552100 -- 7359 2668 148 2208 0 0.00 65.43 0 7359
09/26/2016 -- -- -- -- -- -- -- -- -- -- -- -- -- --

Later | Latest

Warning! This data is preliminary and subject to revision.

Show SHA Map | Plot SHA Data | 1 Month SHA Data | Real-Time SHA Data | SHA Info